createdAt,value
2019-06-01T00:00:10.372Z,3.37
2019-06-01T00:03:01.702Z,3.10
2019-06-01T00:06:05.751Z,3.40
2019-06-01T00:09:09.777Z,3.60
2019-06-01T00:12:14.328Z,3.40
2019-06-01T00:15:18.365Z,3.43
2019-06-01T00:18:22.653Z,3.20
2019-06-01T00:21:27.076Z,3.50
2019-06-01T00:24:31.399Z,3.30
2019-06-01T00:27:35.514Z,3.40
2019-06-01T00:30:39.466Z,3.40
2019-06-01T00:33:43.494Z,3.23
2019-06-01T00:36:47.829Z,3.40
2019-06-01T00:39:52.032Z,3.50
2019-06-01T00:42:56.336Z,3.80
2019-06-01T00:46:00.280Z,3.07
2019-06-01T00:49:04.539Z,3.20
2019-06-01T00:52:08.821Z,3.60
2019-06-01T00:55:12.832Z,3.30
2019-06-01T00:58:17.091Z,3.90
2019-06-01T01:01:21.057Z,3.20
2019-06-01T01:04:25.309Z,3.60
2019-06-01T01:07:29.313Z,3.70
2019-06-01T01:10:33.301Z,3.43
2019-06-01T01:13:37.562Z,3.47
2019-06-01T01:16:41.608Z,3.30
2019-06-01T01:19:45.851Z,3.30
2019-06-01T01:22:50.210Z,3.37
2019-06-01T01:25:54.600Z,3.40
2019-06-01T01:28:58.907Z,3.50
2019-06-01T01:32:03.632Z,3.93
2019-06-01T01:35:08.240Z,3.60
2019-06-01T01:38:12.586Z,3.40
2019-06-01T01:41:16.849Z,3.50
2019-06-01T01:44:21.030Z,3.67
2019-06-01T01:47:25.252Z,3.40
2019-06-01T01:50:29.614Z,3.47
2019-06-01T01:53:33.875Z,3.17
2019-06-01T01:56:37.741Z,3.43
2019-06-01T01:59:41.754Z,3.33
2019-06-01T02:02:46.052Z,3.40
2019-06-01T02:05:50.786Z,3.63
2019-06-01T02:08:55.157Z,3.70
2019-06-01T02:11:59.654Z,3.63
2019-06-01T02:15:03.639Z,3.60
2019-06-01T02:18:07.722Z,3.20
2019-06-01T02:21:11.743Z,3.50
2019-06-01T02:24:16.301Z,3.70
2019-06-01T02:27:20.742Z,3.60
2019-06-01T02:30:24.754Z,3.70
2019-06-01T02:33:28.692Z,3.63
2019-06-01T02:36:32.978Z,3.50
2019-06-01T02:39:37.202Z,3.93
2019-06-01T02:42:41.450Z,3.80
2019-06-01T02:45:46.147Z,3.83
2019-06-01T02:48:50.576Z,3.37
2019-06-01T02:51:55.085Z,3.70
2019-06-01T02:54:59.667Z,3.80
2019-06-01T02:58:04.375Z,3.63
2019-06-01T03:01:56.092Z,3.83
2019-06-01T03:04:46.108Z,3.83
2019-06-01T03:07:52.120Z,3.80
2019-06-01T03:10:59.684Z,3.70
2019-06-01T03:14:04.795Z,3.70
2019-06-01T03:17:12.162Z,4.40
2019-06-01T03:20:17.780Z,3.47
2019-06-01T03:23:24.225Z,4.00
2019-06-01T03:26:31.670Z,3.50
2019-06-01T03:29:41.010Z,4.20
2019-06-01T03:32:45.037Z,4.10
2019-06-01T03:35:49.358Z,4.80
2019-06-01T03:38:54.022Z,4.37
2019-06-01T03:41:58.024Z,4.07
2019-06-01T03:45:03.394Z,3.97
2019-06-01T03:48:08.759Z,3.80
2019-06-01T03:51:13.063Z,3.57
2019-06-01T03:54:17.074Z,3.80
2019-06-01T03:57:21.355Z,3.90
2019-06-01T04:00:25.703Z,3.63
2019-06-01T04:03:29.717Z,3.70
2019-06-01T04:06:33.665Z,4.00
2019-06-01T04:09:37.602Z,4.27
2019-06-01T04:12:41.537Z,4.00
2019-06-01T04:15:45.765Z,3.90
2019-06-01T04:18:50.275Z,4.40
2019-06-01T04:21:54.926Z,4.00
2019-06-01T04:24:59.193Z,3.67
2019-06-01T04:28:06.247Z,4.10
2019-06-01T04:31:10.909Z,4.20
2019-06-01T04:34:15.592Z,3.80
2019-06-01T04:37:19.639Z,4.00
2019-06-01T04:40:23.740Z,4.00
2019-06-01T04:43:28.004Z,4.47
2019-06-01T04:46:32.128Z,4.63
2019-06-01T04:49:36.389Z,4.37
2019-06-01T04:52:40.711Z,4.27
2019-06-01T05:00:00.919Z,5.87
2019-06-01T05:03:07.257Z,3.80
2019-06-01T05:06:11.347Z,3.50
2019-06-01T05:09:15.852Z,2.80
2019-06-01T05:12:19.814Z,2.97
2019-06-01T05:15:23.890Z,3.27
2019-06-01T05:18:28.126Z,3.00
2019-06-01T05:21:32.006Z,2.80
2019-06-01T05:24:36.129Z,2.90
2019-06-01T05:27:40.811Z,2.80
2019-06-01T05:30:44.701Z,2.73
2019-06-01T05:33:48.525Z,3.07
2019-06-01T05:36:52.620Z,3.30
2019-06-01T05:39:56.965Z,3.23
2019-06-01T05:43:01.112Z,3.00
2019-06-01T05:46:05.089Z,3.63
2019-06-01T05:49:11.981Z,3.40
2019-06-01T05:52:15.059Z,3.73
2019-06-01T05:55:19.262Z,3.60
2019-06-01T05:58:23.606Z,3.30
2019-06-01T06:01:37.104Z,3.20
2019-06-01T06:04:41.254Z,3.70
2019-06-01T06:07:45.171Z,4.03
2019-06-01T06:10:49.060Z,3.17
2019-06-01T06:13:53.033Z,3.63
2019-06-01T06:16:56.911Z,3.23
2019-06-01T06:20:00.835Z,3.27
2019-06-01T06:23:05.092Z,3.20
2019-06-01T06:26:10.522Z,3.40
2019-06-01T06:29:14.753Z,2.97
2019-06-01T06:32:19.224Z,3.20
2019-06-01T06:35:24.056Z,3.40
2019-06-01T06:38:28.997Z,3.30
2019-06-01T06:41:34.532Z,3.00
2019-06-01T06:44:39.107Z,3.20
2019-06-01T06:47:43.675Z,3.03
2019-06-01T06:50:47.899Z,2.80
2019-06-01T06:53:52.169Z,2.80
2019-06-01T06:56:56.960Z,3.10
2019-06-01T07:00:00.995Z,2.90
2019-06-01T07:03:05.381Z,2.70
2019-06-01T07:06:09.542Z,2.70
2019-06-01T07:09:14.040Z,2.83
2019-06-01T07:12:19.128Z,2.40
2019-06-01T07:15:23.519Z,2.37
2019-06-01T07:18:28.030Z,2.70
2019-06-01T07:21:32.273Z,2.70
2019-06-01T07:24:36.376Z,2.23
2019-06-01T07:27:41.971Z,2.60
2019-06-01T07:30:50.571Z,2.47
2019-06-01T07:33:52.244Z,2.30
2019-06-01T07:36:56.183Z,2.20
2019-06-01T07:40:00.406Z,2.63
2019-06-01T07:43:04.298Z,2.30
2019-06-01T07:46:08.455Z,2.33
2019-06-01T07:49:12.510Z,2.20
2019-06-01T07:52:16.913Z,2.10
2019-06-01T07:55:21.647Z,1.90
2019-06-01T07:58:26.758Z,2.00
2019-06-01T08:01:31.570Z,2.93
2019-06-01T08:04:52.952Z,1.80
2019-06-01T08:07:42.641Z,1.97
2019-06-01T08:10:46.944Z,2.03
2019-06-01T08:13:50.777Z,1.70
2019-06-01T08:16:54.954Z,1.50
2019-06-01T08:19:58.787Z,1.60
2019-06-01T08:23:02.614Z,1.70
2019-06-01T08:26:06.940Z,1.47
2019-06-01T08:29:11.286Z,1.70
2019-06-01T08:32:15.568Z,1.70
2019-06-01T08:35:19.559Z,1.73
2019-06-01T08:38:23.706Z,1.67
2019-06-01T08:41:27.976Z,1.40
2019-06-01T08:44:33.681Z,1.40
2019-06-01T08:47:37.641Z,1.50
2019-06-01T08:50:45.789Z,1.20
2019-06-01T08:53:48.082Z,1.30
2019-06-01T08:56:51.997Z,1.17
2019-06-01T08:59:56.380Z,1.30
2019-06-01T09:03:00.454Z,1.40
2019-06-01T09:06:04.379Z,1.30
2019-06-01T09:09:11.725Z,1.17
2019-06-01T09:12:17.964Z,1.20
2019-06-01T09:15:21.958Z,1.20
2019-06-01T09:18:27.463Z,0.90
2019-06-01T09:21:32.203Z,1.17
2019-06-01T09:24:36.288Z,1.00
2019-06-01T09:27:41.363Z,1.10
2019-06-01T09:30:45.442Z,1.10
2019-06-01T09:33:50.024Z,1.20
2019-06-01T09:36:55.659Z,1.10
2019-06-01T09:39:59.962Z,1.00
2019-06-01T09:43:03.936Z,0.93
2019-06-01T09:46:08.516Z,1.17
2019-06-01T09:49:12.418Z,0.83
2019-06-01T09:52:16.414Z,1.10
2019-06-01T09:55:20.730Z,1.00
2019-06-01T09:58:24.882Z,1.10
2019-06-01T10:01:30.080Z,0.90
2019-06-01T10:04:34.444Z,0.77
2019-06-01T10:07:39.372Z,0.83
2019-06-01T10:10:43.728Z,0.97
2019-06-01T10:13:47.654Z,0.90
2019-06-01T10:16:52.429Z,1.17
2019-06-01T10:19:56.722Z,0.90
2019-06-01T10:23:01.108Z,1.17
2019-06-01T10:26:05.221Z,1.00
2019-06-01T10:29:09.009Z,1.00
2019-06-01T10:32:12.920Z,1.00
2019-06-01T10:35:17.277Z,1.20
2019-06-01T10:38:21.595Z,1.00
2019-06-01T10:41:25.435Z,1.63
2019-06-01T10:44:29.726Z,1.10
2019-06-01T10:47:33.959Z,0.80
2019-06-01T10:50:38.461Z,1.00
2019-06-01T10:53:43.819Z,0.90
2019-06-01T10:56:48.067Z,0.80
2019-06-01T10:59:52.278Z,1.00
2019-06-01T11:02:56.586Z,1.00
2019-06-01T11:06:00.805Z,0.80
2019-06-01T11:09:07.512Z,0.97
2019-06-01T11:12:11.483Z,1.00
2019-06-01T11:15:17.237Z,1.20
2019-06-01T11:18:21.391Z,0.93
2019-06-01T11:21:25.899Z,0.90
2019-06-01T11:24:29.886Z,1.00
2019-06-01T11:27:35.485Z,0.90
2019-06-01T11:30:40.096Z,0.80
2019-06-01T11:33:44.358Z,0.90
2019-06-01T11:37:04.659Z,1.10
2019-06-01T11:39:53.920Z,1.00
2019-06-01T11:42:58.126Z,0.70
2019-06-01T11:46:02.331Z,0.80
2019-06-01T11:49:06.653Z,0.70
2019-06-01T11:52:10.597Z,0.87
2019-06-01T11:55:14.984Z,1.00
2019-06-01T11:58:18.861Z,0.93
2019-06-01T12:01:22.724Z,0.93
2019-06-01T12:04:26.903Z,0.80
2019-06-01T12:07:31.167Z,0.80
2019-06-01T12:10:36.609Z,0.80
2019-06-01T12:13:40.700Z,0.97
2019-06-01T12:16:45.009Z,0.80
2019-06-01T12:19:48.854Z,1.00
2019-06-01T12:22:53.359Z,1.00
2019-06-01T12:25:57.500Z,1.00
2019-06-01T12:29:01.493Z,0.80
2019-06-01T12:32:05.574Z,1.07
2019-06-01T12:35:10.304Z,0.80
2019-06-01T12:38:14.132Z,1.20
2019-06-01T12:41:18.203Z,0.70
2019-06-01T12:44:22.380Z,0.90
2019-06-01T12:47:26.414Z,1.00
2019-06-01T12:50:30.645Z,0.90
2019-06-01T12:53:34.492Z,1.00
2019-06-01T12:56:38.406Z,0.80
2019-06-01T12:59:43.181Z,0.90
2019-06-01T13:02:59.321Z,0.90
2019-06-01T13:05:53.185Z,0.80
2019-06-01T13:08:57.099Z,0.80
2019-06-01T13:12:00.942Z,0.80
2019-06-01T13:15:05.848Z,1.00
2019-06-01T13:18:09.922Z,0.80
2019-06-01T13:21:14.179Z,0.97
2019-06-01T13:24:18.247Z,0.80
2019-06-01T13:27:22.422Z,0.70
2019-06-01T13:30:26.735Z,1.00
2019-06-01T13:33:30.575Z,0.80
2019-06-01T13:36:35.164Z,0.87
2019-06-01T13:39:38.999Z,0.80
2019-06-01T13:42:43.124Z,0.97
2019-06-01T13:45:47.353Z,0.80
2019-06-01T13:48:52.762Z,0.80
2019-06-01T13:51:57.436Z,0.80
2019-06-01T13:55:01.797Z,0.80
2019-06-01T13:58:06.478Z,0.90
2019-06-01T14:01:10.397Z,1.00
2019-06-01T14:04:14.551Z,0.70
2019-06-01T14:07:18.562Z,0.80
2019-06-01T14:10:24.010Z,0.80
2019-06-01T14:13:27.882Z,0.83
2019-06-01T14:16:31.860Z,0.97
2019-06-01T14:19:36.411Z,0.90
2019-06-01T14:22:40.260Z,0.80
2019-06-01T14:25:44.257Z,0.90
2019-06-01T14:28:48.403Z,0.80
2019-06-01T14:31:54.008Z,0.90
2019-06-01T14:34:58.179Z,0.83
2019-06-01T14:38:02.343Z,0.60
2019-06-01T14:41:06.254Z,0.83
2019-06-01T14:44:10.483Z,0.90
2019-06-01T14:47:18.526Z,0.80
2019-06-01T14:50:21.075Z,0.80
2019-06-01T14:53:24.998Z,0.60
2019-06-01T14:56:29.519Z,0.90
2019-06-01T14:59:33.595Z,0.90
2019-06-01T15:02:37.586Z,0.63
2019-06-01T15:05:41.761Z,0.90
2019-06-01T15:08:45.665Z,0.90
2019-06-01T15:11:50.607Z,1.10
2019-06-01T15:14:55.536Z,0.80
2019-06-01T15:17:59.451Z,0.90
2019-06-01T15:21:03.560Z,0.80
2019-06-01T15:24:07.538Z,1.07
2019-06-01T15:27:12.044Z,1.00
2019-06-01T15:30:16.219Z,0.90
2019-06-01T15:33:20.669Z,0.73
2019-06-01T15:36:25.097Z,0.83
2019-06-01T15:39:29.416Z,0.90
2019-06-01T15:42:33.664Z,1.00
2019-06-01T15:45:40.552Z,0.90
2019-06-01T15:48:43.638Z,1.10
2019-06-01T15:51:47.966Z,1.10
2019-06-01T15:54:53.892Z,1.30
2019-06-01T15:57:58.551Z,2.00
2019-06-01T16:01:03.175Z,1.60
2019-06-01T16:04:07.179Z,1.10
2019-06-01T16:07:11.005Z,1.40
2019-06-01T16:10:15.425Z,0.80
2019-06-01T16:13:19.929Z,1.00
2019-06-01T16:16:23.909Z,1.00
2019-06-01T16:19:27.807Z,1.10
2019-06-01T16:22:32.555Z,1.00
2019-06-01T16:25:36.775Z,1.10
2019-06-01T16:28:40.830Z,1.07
2019-06-01T16:31:45.018Z,1.10
2019-06-01T16:34:49.087Z,0.90
2019-06-01T16:37:53.223Z,1.07
2019-06-01T16:40:57.531Z,1.00
2019-06-01T16:44:01.836Z,1.20
2019-06-01T16:47:06.596Z,1.10
2019-06-01T16:50:11.371Z,1.17
2019-06-01T16:53:15.550Z,1.10
2019-06-01T16:56:19.765Z,1.30
2019-06-01T16:59:24.186Z,1.30
2019-06-01T17:02:28.335Z,1.47
2019-06-01T17:05:32.991Z,1.60
2019-06-01T17:08:37.255Z,1.47
2019-06-01T17:11:41.583Z,1.53
2019-06-01T17:14:45.809Z,1.57
2019-06-01T17:17:50.441Z,1.47
2019-06-01T17:20:57.281Z,1.33
2019-06-01T17:24:01.607Z,1.30
2019-06-01T17:27:06.008Z,1.30
2019-06-01T17:30:12.093Z,1.50
2019-06-01T17:33:15.934Z,1.53
2019-06-01T17:36:20.257Z,1.50
2019-06-01T17:39:24.084Z,1.43
2019-06-01T17:42:28.508Z,1.60
2019-06-01T17:45:32.970Z,1.50
2019-06-01T17:48:37.051Z,1.73
2019-06-01T17:51:41.667Z,1.80
2019-06-01T17:54:45.990Z,1.60
2019-06-01T17:57:50.224Z,1.40
2019-06-01T18:00:54.596Z,1.60
2019-06-01T18:03:58.370Z,1.60
2019-06-01T18:07:02.281Z,1.80
2019-06-01T18:10:06.550Z,1.90
2019-06-01T18:13:10.820Z,1.60
2019-06-01T18:16:15.147Z,1.87
2019-06-01T18:19:18.973Z,1.80
2019-06-01T18:22:23.349Z,1.60
2019-06-01T18:25:29.604Z,1.80
2019-06-01T18:28:33.609Z,2.00
2019-06-01T18:31:37.870Z,1.77
2019-06-01T18:34:41.835Z,1.70
2019-06-01T18:37:46.119Z,1.73
2019-06-01T18:40:50.198Z,1.77
2019-06-01T18:43:54.043Z,1.70
2019-06-01T18:46:58.130Z,1.97
2019-06-01T18:50:02.921Z,1.87
2019-06-01T18:53:08.059Z,1.80
2019-06-01T18:56:12.310Z,1.90
2019-06-01T18:59:16.807Z,2.00
2019-06-01T19:02:20.940Z,1.77
2019-06-01T19:05:24.918Z,1.70
2019-06-01T19:08:29.323Z,1.87
2019-06-01T19:11:36.222Z,1.90
2019-06-01T19:14:39.357Z,2.10
2019-06-01T19:17:43.758Z,1.93
2019-06-01T19:20:47.823Z,2.20
2019-06-01T19:23:52.070Z,1.87
2019-06-01T19:26:56.139Z,2.00
2019-06-01T19:30:00.215Z,1.63
2019-06-01T19:33:04.540Z,1.80
2019-06-01T19:36:09.059Z,2.10
2019-06-01T19:39:13.528Z,1.73
2019-06-01T19:42:17.546Z,2.00
2019-06-01T19:45:29.166Z,1.83
2019-06-01T19:48:27.682Z,1.73
2019-06-01T19:51:32.502Z,2.07
2019-06-01T19:54:36.620Z,2.07
2019-06-01T19:57:40.535Z,1.80
2019-06-01T20:00:44.514Z,1.70
2019-06-01T20:03:48.447Z,1.70
2019-06-01T20:06:52.343Z,1.67
2019-06-01T20:09:56.846Z,2.07
2019-06-01T20:13:01.241Z,1.67
2019-06-01T20:16:05.448Z,2.10
2019-06-01T20:19:09.607Z,1.70
2019-06-01T20:22:14.927Z,2.00
2019-06-01T20:25:21.544Z,1.50
2019-06-01T20:28:26.136Z,1.67
2019-06-01T20:31:30.448Z,1.70
2019-06-01T20:34:34.661Z,1.80
2019-06-01T20:37:38.568Z,1.90
2019-06-01T20:40:42.630Z,2.00
2019-06-01T20:43:46.707Z,1.90
2019-06-01T20:46:50.622Z,1.70
2019-06-01T20:49:54.622Z,1.60
2019-06-01T20:52:58.963Z,1.90
2019-06-01T20:56:02.899Z,1.60
2019-06-01T20:59:07.046Z,1.67
2019-06-01T21:02:11.433Z,1.83
2019-06-01T21:05:15.925Z,1.63
2019-06-01T21:08:20.351Z,1.80
2019-06-01T21:11:24.543Z,2.70
2019-06-01T21:14:28.656Z,1.90
2019-06-01T21:17:32.548Z,1.90
2019-06-01T21:20:36.925Z,2.00
2019-06-01T21:23:40.865Z,1.93
2019-06-01T21:26:44.974Z,1.83
2019-06-01T21:29:49.475Z,1.83
2019-06-01T21:32:53.616Z,1.90
2019-06-01T21:35:58.143Z,2.00
2019-06-01T21:39:02.087Z,1.93
2019-06-01T21:45:10.486Z,1.87
2019-06-01T21:48:15.603Z,2.00
2019-06-01T21:51:19.741Z,2.10
2019-06-01T21:54:24.653Z,2.20
2019-06-01T21:57:28.475Z,1.90
2019-06-01T22:00:37.260Z,2.07
2019-06-01T22:03:41.203Z,2.13
2019-06-01T22:06:46.440Z,2.03
2019-06-01T22:09:50.693Z,2.40
2019-06-01T22:12:54.516Z,2.50
2019-06-01T22:15:58.668Z,2.40
2019-06-01T22:19:02.568Z,2.00
2019-06-01T22:22:06.862Z,2.10
2019-06-01T22:25:11.087Z,1.90
2019-06-01T22:28:14.983Z,2.30
2019-06-01T22:31:20.182Z,2.20
2019-06-01T22:34:24.895Z,2.10
2019-06-01T22:37:28.874Z,2.27
2019-06-01T22:40:33.331Z,2.30
2019-06-01T22:43:46.124Z,2.70
2019-06-01T22:46:43.701Z,2.10
2019-06-01T22:49:47.531Z,2.10
2019-06-01T22:52:51.367Z,2.13
2019-06-01T22:55:55.535Z,2.20
2019-06-01T22:58:59.519Z,2.03
2019-06-01T23:02:03.543Z,2.33
2019-06-01T23:05:07.897Z,2.10
2019-06-01T23:08:12.047Z,2.30
2019-06-01T23:11:16.339Z,2.20
2019-06-01T23:14:21.340Z,2.13
2019-06-01T23:17:25.886Z,1.97
2019-06-01T23:20:30.137Z,2.37
2019-06-01T23:23:33.963Z,2.30
2019-06-01T23:26:37.927Z,2.27
2019-06-01T23:29:42.164Z,2.63
2019-06-01T23:32:46.920Z,2.03
2019-06-01T23:35:51.256Z,2.67
2019-06-01T23:38:55.750Z,2.70
2019-06-01T23:41:59.837Z,2.27
2019-06-01T23:45:04.084Z,2.53
2019-06-01T23:48:08.407Z,2.40
2019-06-01T23:51:12.528Z,2.50
2019-06-01T23:54:16.341Z,2.10
2019-06-01T23:57:20.248Z,2.20
